createdAt,value
2022-09-16T00:00:48.406Z,17.00
2022-09-16T00:03:37.757Z,17.00
2022-09-16T00:06:30.671Z,16.90
2022-09-16T00:09:20.023Z,16.90
2022-09-16T00:12:09.857Z,16.90
2022-09-16T00:14:59.193Z,16.90
2022-09-16T00:17:49.145Z,16.80
2022-09-16T00:20:38.449Z,16.80
2022-09-16T00:23:29.181Z,16.70
2022-09-16T00:26:19.094Z,16.80
2022-09-16T00:29:08.616Z,16.70
2022-09-16T00:31:58.009Z,16.70
2022-09-16T00:34:47.419Z,16.70
2022-09-16T00:37:36.826Z,16.60
2022-09-16T00:40:27.633Z,16.60
2022-09-16T00:43:19.399Z,16.50
2022-09-16T00:46:08.747Z,16.50
2022-09-16T00:49:00.016Z,16.40
2022-09-16T00:51:53.366Z,16.40
2022-09-16T00:54:43.899Z,16.30
2022-09-16T00:57:35.732Z,16.30
2022-09-16T01:00:25.123Z,16.20
2022-09-16T01:03:14.460Z,16.20
2022-09-16T01:06:05.025Z,16.10
2022-09-16T01:08:57.215Z,16.10
2022-09-16T01:11:46.738Z,16.00
2022-09-16T01:14:55.428Z,16.00
2022-09-16T01:17:59.788Z,15.90
2022-09-16T01:21:24.922Z,15.90
2022-09-16T01:24:46.126Z,15.90
2022-09-16T01:28:14.620Z,15.90
2022-09-16T01:31:16.876Z,15.90
2022-09-16T01:34:19.859Z,16.00
2022-09-16T01:37:20.997Z,16.00
2022-09-16T01:40:16.767Z,16.10
2022-09-16T01:43:15.802Z,16.10
2022-09-16T01:46:16.478Z,16.10
2022-09-16T01:49:17.708Z,16.20
2022-09-16T01:52:20.560Z,16.20
2022-09-16T01:55:13.262Z,16.30
2022-09-16T01:58:10.727Z,16.30
2022-09-16T02:01:06.940Z,16.30
2022-09-16T02:04:03.488Z,16.30
2022-09-16T02:06:54.677Z,16.30
2022-09-16T02:09:51.837Z,16.30
2022-09-16T02:12:44.465Z,16.30
2022-09-16T02:15:35.457Z,16.30
2022-09-16T02:18:30.863Z,16.30
2022-09-16T02:21:23.553Z,16.30
2022-09-16T02:24:19.524Z,16.30
2022-09-16T02:27:16.813Z,16.30
2022-09-16T02:30:11.262Z,16.30
2022-09-16T02:33:07.873Z,16.40
2022-09-16T02:36:00.529Z,16.40
2022-09-16T02:38:55.085Z,16.40
2022-09-16T02:41:44.639Z,16.40
2022-09-16T02:44:35.278Z,16.30
2022-09-16T02:47:32.709Z,16.30
2022-09-16T02:50:31.173Z,16.30
2022-09-16T02:53:35.399Z,16.20
2022-09-16T02:56:28.761Z,16.20
2022-09-16T02:59:19.234Z,16.10
2022-09-16T03:02:08.912Z,16.10
2022-09-16T03:04:58.313Z,16.10
2022-09-16T03:07:47.935Z,16.10
2022-09-16T03:10:45.608Z,16.00
2022-09-16T03:13:45.379Z,16.00
2022-09-16T03:16:46.150Z,16.00
2022-09-16T03:19:50.921Z,16.00
2022-09-16T03:22:50.294Z,15.90
2022-09-16T03:25:50.860Z,15.90
2022-09-16T03:28:50.075Z,15.90
2022-09-16T03:31:48.174Z,15.90
2022-09-16T03:34:43.126Z,15.80
2022-09-16T03:37:36.183Z,15.80
2022-09-16T03:40:26.625Z,15.80
2022-09-16T03:43:18.504Z,15.70
2022-09-16T03:46:12.366Z,15.70
2022-09-16T03:49:01.989Z,15.70
2022-09-16T03:51:51.307Z,15.70
2022-09-16T03:54:40.878Z,15.70
2022-09-16T03:57:30.703Z,15.70
2022-09-16T04:00:21.978Z,15.70
2022-09-16T04:03:11.246Z,15.70
2022-09-16T04:06:00.599Z,15.80
2022-09-16T04:08:50.635Z,15.70
2022-09-16T04:11:40.376Z,15.70
2022-09-16T04:14:29.669Z,15.80
2022-09-16T04:17:20.353Z,15.80
2022-09-16T04:20:11.331Z,15.80
2022-09-16T04:23:00.632Z,15.80
2022-09-16T04:25:56.344Z,15.80
2022-09-16T04:28:46.921Z,15.80
2022-09-16T04:31:36.452Z,15.80
2022-09-16T04:34:27.273Z,15.90
2022-09-16T04:37:16.640Z,15.90
2022-09-16T04:40:07.524Z,15.90
2022-09-16T04:42:56.876Z,15.90
2022-09-16T04:45:46.349Z,16.00
2022-09-16T04:48:36.219Z,16.00
2022-09-16T04:51:28.401Z,16.00
2022-09-16T04:54:17.917Z,16.00
2022-09-16T04:57:07.400Z,16.00
2022-09-16T04:59:56.676Z,16.00
2022-09-16T05:02:46.846Z,16.00
2022-09-16T05:05:36.214Z,16.00
2022-09-16T05:08:26.930Z,16.00
2022-09-16T05:11:21.017Z,16.00
2022-09-16T05:14:14.588Z,16.00
2022-09-16T05:17:03.921Z,16.00
2022-09-16T05:19:53.219Z,15.90
2022-09-16T05:22:42.537Z,16.00
2022-09-16T05:25:35.021Z,15.90
2022-09-16T05:28:24.458Z,15.90
2022-09-16T05:31:16.683Z,16.00
2022-09-16T05:34:09.190Z,15.90
2022-09-16T05:37:00.310Z,16.00
2022-09-16T05:39:49.719Z,16.00
2022-09-16T05:42:40.443Z,16.00
2022-09-16T05:45:32.343Z,16.00
2022-09-16T05:48:22.562Z,16.10
2022-09-16T05:51:18.756Z,16.20
2022-09-16T05:54:09.918Z,16.30
2022-09-16T05:57:01.252Z,16.30
2022-09-16T05:59:55.320Z,16.40
2022-09-16T06:02:44.776Z,16.50
2022-09-16T06:05:34.476Z,16.60
2022-09-16T06:08:23.762Z,16.70
2022-09-16T06:11:14.083Z,16.70
2022-09-16T06:14:03.456Z,16.80
2022-09-16T06:16:54.159Z,16.80
2022-09-16T06:19:43.524Z,16.90
2022-09-16T06:22:32.881Z,16.90
2022-09-16T06:25:22.180Z,17.00
2022-09-16T06:28:12.009Z,17.00
2022-09-16T06:31:07.709Z,17.00
2022-09-16T06:33:59.954Z,17.00
2022-09-16T06:36:49.418Z,17.10
2022-09-16T06:39:38.726Z,17.10
2022-09-16T06:42:28.564Z,17.10
2022-09-16T06:45:24.952Z,17.20
2022-09-16T06:48:14.299Z,17.20
2022-09-16T06:51:08.345Z,17.30
2022-09-16T06:54:03.099Z,17.30
2022-09-16T06:56:52.434Z,17.40
2022-09-16T06:59:41.732Z,17.50
2022-09-16T07:02:31.940Z,17.60
2022-09-16T07:05:21.270Z,17.80
2022-09-16T07:08:11.942Z,17.80
2022-09-16T07:11:05.342Z,17.90
2022-09-16T07:13:55.165Z,18.00
2022-09-16T07:16:44.500Z,18.10
2022-09-16T07:19:33.909Z,18.20
2022-09-16T07:22:23.240Z,18.30
2022-09-16T07:25:14.000Z,18.40
2022-09-16T07:28:04.210Z,18.40
2022-09-16T07:30:53.536Z,18.40
2022-09-16T07:33:45.417Z,18.50
2022-09-16T07:36:37.506Z,18.60
2022-09-16T07:39:27.220Z,18.70
2022-09-16T07:42:17.972Z,18.90
2022-09-16T07:45:08.600Z,19.20
2022-09-16T07:47:57.939Z,19.60
2022-09-16T07:50:57.095Z,20.00
2022-09-16T07:53:47.627Z,20.30
2022-09-16T07:56:39.583Z,20.60
2022-09-16T07:59:30.542Z,21.00
2022-09-16T08:02:20.009Z,21.50
2022-09-16T08:05:10.364Z,21.90
2022-09-16T08:07:59.687Z,22.20
2022-09-16T08:10:55.893Z,22.50
2022-09-16T08:13:46.563Z,22.70
2022-09-16T08:16:37.369Z,22.80
2022-09-16T08:19:26.797Z,22.90
2022-09-16T08:22:16.179Z,22.90
2022-09-16T08:25:06.469Z,22.80
2022-09-16T08:27:56.472Z,22.70
2022-09-16T08:30:49.010Z,22.60
2022-09-16T08:33:43.153Z,22.40
2022-09-16T08:36:33.842Z,22.30
2022-09-16T08:39:23.236Z,22.10
2022-09-16T08:42:42.260Z,22.00
2022-09-16T08:45:39.223Z,22.10
2022-09-16T08:48:38.441Z,22.30
2022-09-16T08:51:29.625Z,22.80
2022-09-16T08:54:29.094Z,23.30
2022-09-16T08:57:23.249Z,23.70
2022-09-16T09:00:18.091Z,23.90
2022-09-16T09:03:17.370Z,24.10
2022-09-16T09:06:22.020Z,24.30
2022-09-16T09:09:30.491Z,24.40
2022-09-16T09:12:33.060Z,24.40
2022-09-16T09:15:36.365Z,24.20
2022-09-16T09:18:40.803Z,24.10
2022-09-16T09:21:44.298Z,23.90
2022-09-16T09:25:10.378Z,23.90
2022-09-16T09:28:18.538Z,23.90
2022-09-16T09:31:20.131Z,24.00
2022-09-16T09:34:27.209Z,24.10
2022-09-16T09:37:52.816Z,24.20
2022-09-16T09:40:51.078Z,24.40
2022-09-16T09:43:46.740Z,24.90
2022-09-16T09:46:41.167Z,25.60
2022-09-16T09:49:34.561Z,26.20
2022-09-16T09:52:32.381Z,26.90
2022-09-16T09:55:25.882Z,27.60
2022-09-16T09:58:28.324Z,28.50
2022-09-16T10:01:18.373Z,29.30
2022-09-16T10:04:15.891Z,29.90
2022-09-16T10:07:07.020Z,30.30
2022-09-16T10:10:02.319Z,30.70
2022-09-16T10:12:52.078Z,31.20
2022-09-16T10:15:42.935Z,31.60
2022-09-16T10:18:33.591Z,31.90
2022-09-16T10:21:23.041Z,32.10
2022-09-16T10:24:33.390Z,32.20
2022-09-16T10:27:27.022Z,32.10
2022-09-16T10:30:19.764Z,31.90
2022-09-16T10:33:17.796Z,31.60
2022-09-16T10:36:11.278Z,31.40
2022-09-16T10:39:04.742Z,31.50
2022-09-16T10:41:54.880Z,31.70
2022-09-16T10:44:46.216Z,31.90
2022-09-16T10:47:36.388Z,32.30
2022-09-16T10:50:27.741Z,32.60
2022-09-16T10:53:27.767Z,32.80
2022-09-16T10:56:21.031Z,33.00
2022-09-16T10:59:13.303Z,33.10
2022-09-16T11:05:24.063Z,33.50
2022-09-16T11:08:35.975Z,33.50
2022-09-16T11:11:47.554Z,33.40
2022-09-16T11:14:51.320Z,32.80
2022-09-16T11:17:56.846Z,32.10
2022-09-16T11:21:12.858Z,31.10
2022-09-16T11:24:28.257Z,30.20
2022-09-16T11:27:32.145Z,29.40
2022-09-16T11:30:23.140Z,28.70
2022-09-16T11:33:24.663Z,28.10
2022-09-16T11:36:37.642Z,27.60
2022-09-16T11:39:49.425Z,27.20
2022-09-16T11:42:44.277Z,26.80
2022-09-16T11:45:48.711Z,26.50
2022-09-16T11:48:50.302Z,26.10
2022-09-16T11:51:58.709Z,25.70
2022-09-16T11:55:19.816Z,25.40
2022-09-16T11:58:23.152Z,25.20
2022-09-16T12:01:25.422Z,24.90
2022-09-16T12:04:22.399Z,24.70
2022-09-16T12:07:17.784Z,24.60
2022-09-16T12:10:19.261Z,24.50
2022-09-16T12:13:15.563Z,24.40
2022-09-16T12:16:10.907Z,24.40
2022-09-16T12:19:09.372Z,24.40
2022-09-16T12:22:06.129Z,24.40
2022-09-16T12:25:05.328Z,24.40
2022-09-16T12:28:04.020Z,24.30
2022-09-16T12:31:04.387Z,24.20
2022-09-16T12:34:09.856Z,24.00
2022-09-16T12:37:06.665Z,23.80
2022-09-16T12:39:56.114Z,23.70
2022-09-16T12:43:32.503Z,23.40
2022-09-16T12:46:50.567Z,23.20
2022-09-16T12:50:14.184Z,23.00
2022-09-16T12:53:49.560Z,22.90
2022-09-16T12:56:56.165Z,22.70
2022-09-16T13:00:16.422Z,22.50
2022-09-16T13:03:14.064Z,22.40
2022-09-16T13:06:23.569Z,22.30
2022-09-16T13:09:23.531Z,22.20
2022-09-16T13:12:39.220Z,22.10
2022-09-16T13:15:35.454Z,22.00
2022-09-16T13:18:28.033Z,21.90
2022-09-16T13:21:26.440Z,21.80
2022-09-16T13:24:25.425Z,21.70
2022-09-16T13:27:32.855Z,21.60
2022-09-16T13:30:34.713Z,21.50
2022-09-16T13:33:30.413Z,21.50
2022-09-16T13:36:34.622Z,21.40
2022-09-16T13:39:32.793Z,21.30
2022-09-16T13:42:24.823Z,21.30
2022-09-16T13:45:36.709Z,21.30
2022-09-16T13:48:28.148Z,21.30
2022-09-16T13:51:21.681Z,21.40
2022-09-16T13:54:26.401Z,21.40
2022-09-16T13:57:48.405Z,21.50
2022-09-16T14:00:48.825Z,21.60
2022-09-16T14:03:56.299Z,21.70
2022-09-16T14:07:00.452Z,21.80
2022-09-16T14:10:01.503Z,21.80
2022-09-16T14:13:03.088Z,21.80
2022-09-16T14:15:57.211Z,21.80
2022-09-16T14:18:55.544Z,21.70
2022-09-16T14:21:44.986Z,21.60
2022-09-16T14:24:39.589Z,21.50
2022-09-16T14:27:30.964Z,21.30
2022-09-16T14:30:21.487Z,21.20
2022-09-16T14:33:13.110Z,21.10
2022-09-16T14:36:10.626Z,21.00
2022-09-16T14:39:03.256Z,21.00
2022-09-16T14:41:54.675Z,20.90
2022-09-16T14:44:47.672Z,20.80
2022-09-16T14:47:51.135Z,20.80
2022-09-16T14:50:46.206Z,20.70
2022-09-16T14:53:38.423Z,20.60
2022-09-16T14:56:28.090Z,20.60
2022-09-16T14:59:17.894Z,20.50
2022-09-16T15:02:16.266Z,20.40
2022-09-16T15:05:22.990Z,20.30
2022-09-16T15:08:19.526Z,20.20
2022-09-16T15:11:30.051Z,20.10
2022-09-16T15:14:27.913Z,20.00
2022-09-16T15:17:21.939Z,19.90
2022-09-16T15:20:22.942Z,19.90
2022-09-16T15:23:26.070Z,19.90
2022-09-16T15:26:18.894Z,19.80
2022-09-16T15:29:26.105Z,19.80
2022-09-16T15:32:21.019Z,19.80
2022-09-16T15:35:22.532Z,19.70
2022-09-16T15:38:13.812Z,19.70
2022-09-16T15:41:07.333Z,19.60
2022-09-16T15:43:57.022Z,19.50
2022-09-16T15:46:47.517Z,19.50
2022-09-16T15:49:40.752Z,19.40
2022-09-16T15:52:32.830Z,19.30
2022-09-16T15:55:33.665Z,19.20
2022-09-16T15:58:39.628Z,19.20
2022-09-16T16:01:53.120Z,19.10
2022-09-16T16:04:43.003Z,19.10
2022-09-16T16:07:45.816Z,19.00
2022-09-16T16:10:36.387Z,19.00
2022-09-16T16:13:27.132Z,19.00
2022-09-16T16:16:18.535Z,19.00
2022-09-16T16:19:09.141Z,18.90
2022-09-16T16:21:59.281Z,18.90
2022-09-16T16:24:48.620Z,18.90
2022-09-16T16:27:38.168Z,18.90
2022-09-16T16:30:28.877Z,18.80
2022-09-16T16:33:18.339Z,18.90
2022-09-16T16:36:08.651Z,18.80
2022-09-16T16:38:58.128Z,18.70
2022-09-16T16:41:47.415Z,18.70
2022-09-16T16:44:36.811Z,18.60
2022-09-16T16:47:27.619Z,18.50
2022-09-16T16:50:18.102Z,18.40
2022-09-16T16:53:07.426Z,18.30
2022-09-16T16:56:04.238Z,18.20
2022-09-16T16:58:55.334Z,18.10
2022-09-16T17:01:48.729Z,18.10
2022-09-16T17:04:40.023Z,18.00
2022-09-16T17:07:29.840Z,17.90
2022-09-16T17:10:19.202Z,17.80
2022-09-16T17:13:08.794Z,17.70
2022-09-16T17:15:58.680Z,17.70
2022-09-16T17:18:48.845Z,17.60
2022-09-16T17:21:39.763Z,17.60
2022-09-16T17:24:29.110Z,17.50
2022-09-16T17:27:20.723Z,17.40
2022-09-16T17:30:10.996Z,17.30
2022-09-16T17:33:00.594Z,17.30
2022-09-16T17:35:59.376Z,17.20
2022-09-16T17:38:50.437Z,17.10
2022-09-16T17:41:39.814Z,17.00
2022-09-16T17:44:29.289Z,17.00
2022-09-16T17:47:18.596Z,16.90
2022-09-16T17:50:09.297Z,16.80
2022-09-16T17:52:58.622Z,16.80
2022-09-16T17:55:50.163Z,16.70
2022-09-16T17:58:41.992Z,16.70
2022-09-16T18:01:32.037Z,16.60
2022-09-16T18:04:21.487Z,16.50
2022-09-16T18:07:11.595Z,16.50
2022-09-16T18:10:00.945Z,16.40
2022-09-16T18:12:51.736Z,16.30
2022-09-16T18:15:41.094Z,16.30
2022-09-16T18:18:31.796Z,16.20
2022-09-16T18:21:23.922Z,16.20
2022-09-16T18:24:13.957Z,16.10
2022-09-16T18:27:03.412Z,16.10
2022-09-16T18:29:54.456Z,16.00
2022-09-16T18:32:43.832Z,15.90
2022-09-16T18:35:37.061Z,15.90
2022-09-16T18:38:26.572Z,15.80
2022-09-16T18:41:19.091Z,15.80
2022-09-16T18:44:14.026Z,15.80
2022-09-16T18:47:06.409Z,15.70
2022-09-16T18:49:55.798Z,15.70
2022-09-16T18:52:45.191Z,15.60
2022-09-16T18:55:34.520Z,15.60
2022-09-16T18:58:24.001Z,15.60
2022-09-16T19:01:27.277Z,15.50
2022-09-16T19:04:22.033Z,15.50
2022-09-16T19:07:15.026Z,15.50
2022-09-16T19:10:04.818Z,15.50
2022-09-16T19:12:54.389Z,15.40
2022-09-16T19:15:43.798Z,15.40
2022-09-16T19:18:33.233Z,15.40
2022-09-16T19:21:25.740Z,15.40
2022-09-16T19:24:18.400Z,15.30
2022-09-16T19:27:07.828Z,15.30
2022-09-16T19:29:57.199Z,15.30
2022-09-16T19:32:46.674Z,15.30
2022-09-16T19:35:36.288Z,15.20
2022-09-16T19:38:28.512Z,15.20
2022-09-16T19:41:21.032Z,15.20
2022-09-16T19:44:15.335Z,15.20
2022-09-16T19:47:04.750Z,15.10
2022-09-16T19:49:54.201Z,15.20
2022-09-16T19:52:43.569Z,15.10
2022-09-16T19:55:34.408Z,15.10
2022-09-16T19:58:23.848Z,15.10
2022-09-16T20:01:15.880Z,15.10
2022-09-16T20:04:07.786Z,15.10
2022-09-16T20:06:57.123Z,15.20
2022-09-16T20:09:48.312Z,15.20
2022-09-16T20:12:39.119Z,15.30
2022-09-16T20:15:28.463Z,15.30
2022-09-16T20:18:17.811Z,15.30
2022-09-16T20:21:10.649Z,15.40
2022-09-16T20:24:00.052Z,15.40
2022-09-16T20:26:53.071Z,15.40
2022-09-16T20:29:43.816Z,15.40
2022-09-16T20:32:33.105Z,15.40
2022-09-16T20:35:22.548Z,15.40
2022-09-16T20:38:11.876Z,15.30
2022-09-16T20:41:06.181Z,15.30
2022-09-16T20:43:55.670Z,15.30
2022-09-16T20:46:48.156Z,15.20
2022-09-16T20:49:37.534Z,15.20
2022-09-16T20:52:26.803Z,15.20
2022-09-16T20:55:16.305Z,15.10
2022-09-16T20:58:05.640Z,15.10
2022-09-16T21:00:54.995Z,15.00
2022-09-16T21:03:46.562Z,15.00
2022-09-16T21:06:37.349Z,14.90
2022-09-16T21:09:26.681Z,14.90
2022-09-16T21:12:17.047Z,14.80
2022-09-16T21:15:07.693Z,14.80
2022-09-16T21:17:57.036Z,14.70
2022-09-16T21:20:48.395Z,14.70
2022-09-16T21:23:38.267Z,14.70
2022-09-16T21:26:29.639Z,14.60
2022-09-16T21:29:20.888Z,14.50
2022-09-16T21:32:10.975Z,14.50
2022-09-16T21:35:00.427Z,14.50
2022-09-16T21:37:51.137Z,14.40
2022-09-16T21:40:40.504Z,14.40
2022-09-16T21:43:33.457Z,14.30
2022-09-16T21:46:26.988Z,14.30
2022-09-16T21:49:22.551Z,14.30
2022-09-16T21:52:12.029Z,14.20
2022-09-16T21:55:03.128Z,14.20
2022-09-16T21:57:52.415Z,14.20
2022-09-16T22:00:41.828Z,14.10
2022-09-16T22:03:31.188Z,14.10
2022-09-16T22:06:22.568Z,14.00
2022-09-16T22:09:12.531Z,14.00
2022-09-16T22:12:03.566Z,14.00
2022-09-16T22:14:52.897Z,14.00
2022-09-16T22:17:43.885Z,13.90
2022-09-16T22:20:34.316Z,13.90
2022-09-16T22:23:23.643Z,13.90
2022-09-16T22:26:15.738Z,13.80
2022-09-16T22:29:09.044Z,13.80
2022-09-16T22:31:58.361Z,13.80
2022-09-16T22:34:48.027Z,13.80
2022-09-16T22:37:37.331Z,13.70
2022-09-16T22:40:26.865Z,13.70
2022-09-16T22:43:16.185Z,13.70
2022-09-16T22:46:08.961Z,13.60
2022-09-16T22:49:00.148Z,13.60
2022-09-16T22:51:49.826Z,13.60
2022-09-16T22:54:39.106Z,13.60
2022-09-16T22:57:30.189Z,13.50
2022-09-16T23:00:19.622Z,13.50
2022-09-16T23:03:10.257Z,13.50
2022-09-16T23:06:02.396Z,13.50
2022-09-16T23:08:52.397Z,13.50
2022-09-16T23:11:41.834Z,13.40
2022-09-16T23:14:31.147Z,13.40
2022-09-16T23:17:20.475Z,13.40
2022-09-16T23:20:11.510Z,13.40
2022-09-16T23:23:00.852Z,13.40
2022-09-16T23:25:50.144Z,13.40
2022-09-16T23:28:39.609Z,13.40
2022-09-16T23:31:30.828Z,13.50
2022-09-16T23:34:22.860Z,13.50
2022-09-16T23:37:13.514Z,13.60
2022-09-16T23:40:03.600Z,13.70
2022-09-16T23:42:52.928Z,13.70
2022-09-16T23:45:43.022Z,13.80
2022-09-16T23:48:33.092Z,13.80
2022-09-16T23:51:28.283Z,13.90
2022-09-16T23:54:19.356Z,13.90
2022-09-16T23:57:08.841Z,14.00
2022-09-16T23:59:58.158Z,14.00
